Time;durP1;ratioP1;P1;durP2;ratioP2;P2;SDS_P1;SDS_P2;PMS_P1;PMS_P2;Temp;Humidity;BMP_temperature;BMP_pressure;BME280_temperature;BME280_humidity;BME280_pressure;Samples;Min_cycle;Max_cycle;Signal;HPM_P1;HPM_P2
2022/11/10 00:00:29;;;;;;;;;;;;;;;;;;941254;27;19917;-76
2022/11/10 00:01:03;;;;;;;;;;;;;;;;;;941212;27;19907;-76
2022/11/10 00:01:36;;;;;;;;;;;;;;;;;;941243;27;20181;-77
2022/11/10 00:02:06;;;;;;;;;;;;;;;;;;941133;27;20217;-76
2022/11/10 00:02:37;;;;;;;;;;;;;;;;;;941164;27;19907;-76
2022/11/10 00:03:13;;;;;;;;;;;;;;;;;;941233;27;19908;-76
2022/11/10 00:03:44;;;;;;;;;;;;;;;;;;941122;27;19914;-76
2022/11/10 00:04:14;;;;;;;;;;;;;;;;;;941179;27;20227;-76
2022/11/10 00:04:48;;;;;;;;;;;;;;;;;;941233;27;20165;-76
2022/11/10 00:05:18;;;;;;;;;;;;;;;;;;941229;27;19907;-76
2022/11/10 00:05:52;;;;;;;;;;;;;;;;;;941209;27;19907;-76
2022/11/10 00:06:22;;;;;;;;;;;;;;;;;;941378;27;19918;-76
2022/11/10 00:06:53;;;;;;;;;;;;;;;;;;941157;27;19918;-76
2022/11/10 00:07:27;;;;;;;;;;;;;;;;;;941198;27;19916;-76
2022/11/10 00:08:01;;;;;;;;;;;;;;;;;;941292;27;19907;-76
2022/11/10 00:08:34;;;;;;;;;;;;;;;;;;941139;27;19911;-76
2022/11/10 00:09:04;;;;;;;;;;;;;;;;;;941157;27;19907;-75
2022/11/10 00:09:35;;;;;;;;;;;;;;;;;;941113;27;20239;-75
2022/11/10 00:10:09;;;;;;;;;;;;;;;;;;941193;27;19908;-76
2022/11/10 00:11:28;;;;;;;;;;;;;;;;;;940966;27;19915;-75
2022/11/10 00:11:59;;;;;;;;;;;;;;;;;;941108;27;19907;-76
2022/11/10 00:12:31;;;;;;;;;;;;;;;;;;941199;27;20212;-76
2022/11/10 00:13:05;;;;;;;;;;;;;;;;;;941157;27;19908;-76
2022/11/10 00:16:59;;;;;;;;;;;;;;;;;;941135;27;19907;-75
2022/11/10 00:17:33;;;;;;;;;;;;;;;;;;941162;27;19960;-76
2022/11/10 00:18:04;;;;;;;;;;;;;;;;;;941196;27;20208;-75
2022/11/10 00:18:37;;;;;;;;;;;;;;;;;;941164;27;19918;-76
2022/11/10 00:19:10;;;;;;;;;;;;;;;;;;941086;27;19915;-76
2022/11/10 00:19:41;;;;;;;;;;;;;;;;;;941080;27;19922;-76
2022/11/10 00:20:12;;;;;;;;;;;;;;;;;;941118;27;19915;-76
2022/11/10 00:20:45;;;;;;;;;;;;;;;;;;941194;27;19959;-75
2022/11/10 00:21:16;;;;;;;;;;;;;;;;;;941212;27;19908;-75
2022/11/10 00:21:50;;;;;;;;;;;;;;;;;;941232;27;20009;-75
2022/11/10 00:22:20;;;;;;;;;;;;;;;;;;941111;27;19904;-75
2022/11/10 00:22:53;;;;;;;;;;;;;;;;;;941188;27;19911;-76
2022/11/10 00:23:26;;;;;;;;;;;;;;;;;;941259;27;20224;-76
2022/11/10 00:23:57;;;;;;;;;;;;;;;;;;941275;27;19907;-78
2022/11/10 00:24:28;;;;;;;;;;;;;;;;;;941170;27;19907;-75
2022/11/10 00:25:01;;;;;;;;;;;;;;;;;;941106;27;19965;-75
2022/11/10 00:25:32;;;;;;;;;;;;;;;;;;941148;27;19911;-76
2022/11/10 00:26:02;;;;;;;;;;;;;;;;;;941256;27;20247;-76
2022/11/10 00:26:36;;;;;;;;;;;;;;;;;;941112;27;19911;-76
2022/11/10 00:27:06;;;;;;;;;;;;;;;;;;941159;27;19907;-76
2022/11/10 00:27:37;;;;;;;;;;;;;;;;;;941218;27;19918;-76
2022/11/10 00:28:11;;;;;;;;;;;;;;;;;;941248;27;19915;-76
2022/11/10 00:28:42;;;;;;;;;;;;;;;;;;941076;27;19914;-76
2022/11/10 00:29:12;;;;;;;;;;;;;;;;;;941240;27;19915;-76
2022/11/10 00:29:46;;;;;;;;;;;;;;;;;;941396;27;19915;-75
2022/11/10 00:30:16;;;;;;;;;;;;;;;;;;941230;27;20209;-76
2022/11/10 00:30:47;;;;;;;;;;;;;;;;;;941099;27;19919;-75
2022/11/10 00:31:20;;;;;;;;;;;;;;;;;;941229;27;19917;-76
2022/11/10 00:31:51;;;;;;;;;;;;;;;;;;941115;27;19911;-76
2022/11/10 00:32:22;;;;;;;;;;;;;;;;;;941160;27;19907;-76
2022/11/10 00:32:55;;;;;;;;;;;;;;;;;;941037;27;19918;-76
2022/11/10 00:33:25;;;;;;;;;;;;;;;;;;941141;27;19907;-76
2022/11/10 00:33:59;;;;;;;;;;;;;;;;;;941244;27;19911;-77
2022/11/10 00:34:32;;;;;;;;;;;;;;;;;;941085;27;19917;-75
2022/11/10 00:35:03;;;;;;;;;;;;;;;;;;940947;27;19923;-76
2022/11/10 00:35:34;;;;;;;;;;;;;;;;;;941101;27;19911;-76
2022/11/10 00:36:07;;;;;;;;;;;;;;;;;;941145;27;20200;-76
2022/11/10 00:36:38;;;;;;;;;;;;;;;;;;941188;27;19918;-76
2022/11/10 00:37:09;;;;;;;;;;;;;;;;;;941254;27;19916;-76
2022/11/10 00:37:42;;;;;;;;;;;;;;;;;;941234;27;19915;-76
2022/11/10 00:38:13;;;;;;;;;;;;;;;;;;941148;27;19903;-78
2022/11/10 00:38:43;;;;;;;;;;;;;;;;;;941096;27;19915;-76
2022/11/10 00:39:16;;;;;;;;;;;;;;;;;;941258;27;19907;-77
2022/11/10 00:39:47;;;;;;;;;;;;;;;;;;941138;27;19922;-76
2022/11/10 00:40:21;;;;;;;;;;;;;;;;;;941176;27;19954;-75
2022/11/10 00:40:52;;;;;;;;;;;;;;;;;;941064;27;19918;-77
2022/11/10 00:41:23;;;;;;;;;;;;;;;;;;941140;27;19912;-75
2022/11/10 00:41:56;;;;;;;;;;;;;;;;;;940562;27;20203;-75
2022/11/10 00:42:26;;;;;;;;;;;;;;;;;;941233;27;19907;-77
2022/11/10 00:42:57;;;;;;;;;;;;;;;;;;941182;27;20341;-77
2022/11/10 00:43:31;;;;;;;;;;;;;;;;;;941238;27;19911;-76
2022/11/10 00:44:02;;;;;;;;;;;;;;;;;;941097;27;19973;-76
2022/11/10 00:44:32;;;;;;;;;;;;;;;;;;941101;27;19915;-76
2022/11/10 00:45:06;;;;;;;;;;;;;;;;;;941246;27;20190;-75
2022/11/10 00:45:39;;;;;;;;;;;;;;;;;;941078;27;19907;-76
2022/11/10 00:46:09;;;;;;;;;;;;;;;;;;941103;27;19960;-76
2022/11/10 00:46:43;;;;;;;;;;;;;;;;;;941075;27;19957;-75
2022/11/10 00:47:13;;;;;;;;;;;;;;;;;;941072;27;19907;-75
2022/11/10 00:47:45;;;;;;;;;;;;;;;;;;941109;27;19912;-76
2022/11/10 00:48:18;;;;;;;;;;;;;;;;;;941064;27;20221;-76
2022/11/10 00:48:49;;;;;;;;;;;;;;;;;;940994;27;20135;-76
2022/11/10 00:49:25;;;;;;;;;;;;;;;;;;941004;27;19907;-75
2022/11/10 00:49:56;;;;;;;;;;;;;;;;;;941141;27;19922;-75
2022/11/10 00:50:26;;;;;;;;;;;;;;;;;;941136;27;19918;-76
2022/11/10 00:51:00;;;;;;;;;;;;;;;;;;940936;27;19919;-76
2022/11/10 00:51:30;;;;;;;;;;;;;;;;;;941156;27;19907;-76
2022/11/10 00:52:01;;;;;;;;;;;;;;;;;;941140;27;19907;-76
2022/11/10 00:52:34;;;;;;;;;;;;;;;;;;941314;27;19907;-76
2022/11/10 00:53:05;;;;;;;;;;;;;;;;;;941001;27;19908;-76
2022/11/10 00:53:36;;;;;;;;;;;;;;;;;;941177;27;19907;-76
2022/11/10 00:54:09;;;;;;;;;;;;;;;;;;941055;27;19907;-76
2022/11/10 00:54:39;;;;;;;;;;;;;;;;;;941140;27;19917;-76
2022/11/10 00:55:10;;;;;;;;;;;;;;;;;;941113;27;19919;-76
2022/11/10 00:55:41;;;;;;;;;;;;;;;;;;941139;27;20183;-76
2022/11/10 00:56:14;;;;;;;;;;;;;;;;;;941206;27;20189;-76
2022/11/10 00:56:45;;;;;;;;;;;;;;;;;;940949;27;19918;-76
2022/11/10 00:57:15;;;;;;;;;;;;;;;;;;941212;27;19918;-76
2022/11/10 00:57:48;;;;;;;;;;;;;;;;;;941143;27;19919;-74
2022/11/10 00:58:19;;;;;;;;;;;;;;;;;;941127;27;20170;-76
2022/11/10 00:58:50;;;;;;;;;;;;;;;;;;941172;27;19946;-75
2022/11/10 00:59:23;;;;;;;;;;;;;;;;;;941061;27;20215;-76
2022/11/10 00:59:54;;;;;;;;;;;;;;;;;;941030;27;19915;-75
2022/11/10 01:00:24;;;;;;;;;;;;;;;;;;941060;27;19912;-76
2022/11/10 01:00:59;;;;;;;;;;;;;;;;;;941092;27;20272;-76
2022/11/10 01:01:33;;;;;;;;;;;;;;;;;;941127;27;20041;-76
2022/11/10 01:02:03;;;;;;;;;;;;;;;;;;941099;27;20393;-75
2022/11/10 01:02:34;;;;;;;;;;;;;;;;;;941109;27;19914;-76
2022/11/10 01:03:07;;;;;;;;;;;;;;;;;;940990;27;19953;-75
2022/11/10 01:03:38;;;;;;;;;;;;;;;;;;941208;27;19907;-75
2022/11/10 01:04:09;;;;;;;;;;;;;;;;;;940986;27;19915;-76
2022/11/10 01:04:45;;;;;;;;;;;;;;;;;;941046;27;19915;-75
2022/11/10 01:05:15;;;;;;;;;;;;;;;;;;941067;27;19907;-76
2022/11/10 01:05:46;;;;;;;;;;;;;;;;;;941165;27;19911;-75
2022/11/10 01:06:17;;;;;;;;;;;;;;;;;;940764;27;19915;-75
2022/11/10 01:06:51;;;;;;;;;;;;;;;;;;940412;27;19963;-75
2022/11/10 01:07:22;;;;;;;;;;;;;;;;;;940991;27;19965;-78
2022/11/10 01:07:55;;;;;;;;;;;;;;;;;;941134;27;19960;-76
2022/11/10 01:08:26;;;;;;;;;;;;;;;;;;941020;27;19907;-76
2022/11/10 01:08:56;;;;;;;;;;;;;;;;;;941030;27;20162;-76
2022/11/10 01:09:30;;;;;;;;;;;;;;;;;;941021;27;20186;-76
2022/11/10 01:10:00;;;;;;;;;;;;;;;;;;941022;27;19908;-75
2022/11/10 01:10:31;;;;;;;;;;;;;;;;;;941080;27;19911;-76
2022/11/10 01:11:05;;;;;;;;;;;;;;;;;;940956;27;20251;-75
2022/11/10 01:11:35;;;;;;;;;;;;;;;;;;941191;27;20229;-76
2022/11/10 01:12:06;;;;;;;;;;;;;;;;;;940993;27;19959;-76
2022/11/10 01:12:39;;;;;;;;;;;;;;;;;;940993;27;19922;-75
2022/11/10 01:13:10;;;;;;;;;;;;;;;;;;940900;27;20143;-76
2022/11/10 01:13:40;;;;;;;;;;;;;;;;;;941082;27;19908;-75
2022/11/10 01:14:14;;;;;;;;;;;;;;;;;;941101;27;19907;-75
2022/11/10 01:14:46;;;;;;;;;;;;;;;;;;941081;27;19907;-76
2022/11/10 01:15:17;;;;;;;;;;;;;;;;;;940971;27;19918;-75
2022/11/10 01:15:50;;;;;;;;;;;;;;;;;;941121;27;19907;-76
2022/11/10 01:16:22;;;;;;;;;;;;;;;;;;941012;27;19911;-75
2022/11/10 01:16:52;;;;;;;;;;;;;;;;;;941102;27;19907;-75
2022/11/10 01:17:25;;;;;;;;;;;;;;;;;;941016;27;19964;-76
2022/11/10 01:17:56;;;;;;;;;;;;;;;;;;941051;27;19918;-75
2022/11/10 01:18:27;;;;;;;;;;;;;;;;;;941024;27;19911;-75
2022/11/10 01:19:01;;;;;;;;;;;;;;;;;;941043;27;19955;-75
2022/11/10 01:19:32;;;;;;;;;;;;;;;;;;940885;27;19908;-76
2022/11/10 01:20:07;;;;;;;;;;;;;;;;;;941015;27;19908;-76
2022/11/10 01:20:40;;;;;;;;;;;;;;;;;;940946;27;20162;-76
2022/11/10 01:21:11;;;;;;;;;;;;;;;;;;941029;27;19918;-75
2022/11/10 01:21:41;;;;;;;;;;;;;;;;;;941131;27;19914;-76
2022/11/10 01:22:15;;;;;;;;;;;;;;;;;;941036;27;19911;-75
2022/11/10 01:22:45;;;;;;;;;;;;;;;;;;940978;27;19960;-76
2022/11/10 01:23:16;;;;;;;;;;;;;;;;;;940993;27;19914;-76
2022/11/10 01:23:49;;;;;;;;;;;;;;;;;;941127;27;19917;-75
2022/11/10 01:24:20;;;;;;;;;;;;;;;;;;940931;27;19907;-75
2022/11/10 01:24:51;;;;;;;;;;;;;;;;;;940974;27;19908;-78
2022/11/10 01:25:24;;;;;;;;;;;;;;;;;;941040;27;19907;-75
2022/11/10 01:25:56;;;;;;;;;;;;;;;;;;940945;27;19918;-76
2022/11/10 01:26:27;;;;;;;;;;;;;;;;;;941122;27;19907;-76
2022/11/10 01:27:00;;;;;;;;;;;;;;;;;;941167;27;20279;-76
2022/11/10 01:27:30;;;;;;;;;;;;;;;;;;940816;27;19914;-75
2022/11/10 01:28:01;;;;;;;;;;;;;;;;;;941026;27;20393;-75
2022/11/10 01:28:35;;;;;;;;;;;;;;;;;;940945;27;20273;-75
2022/11/10 01:29:05;;;;;;;;;;;;;;;;;;941103;27;19908;-76
2022/11/10 01:29:39;;;;;;;;;;;;;;;;;;940998;27;19918;-75
2022/11/10 01:30:10;;;;;;;;;;;;;;;;;;940961;27;19918;-75
2022/11/10 01:30:41;;;;;;;;;;;;;;;;;;940938;27;20009;-75
2022/11/10 01:31:16;;;;;;;;;;;;;;;;;;941091;27;19915;-76
2022/11/10 01:31:47;;;;;;;;;;;;;;;;;;940999;27;19949;-75
2022/11/10 01:32:17;;;;;;;;;;;;;;;;;;941000;27;20208;-76
2022/11/10 01:32:51;;;;;;;;;;;;;;;;;;940859;27;20270;-75
2022/11/10 01:33:21;;;;;;;;;;;;;;;;;;940961;27;19908;-76
2022/11/10 01:33:52;;;;;;;;;;;;;;;;;;941046;27;19908;-76
2022/11/10 01:34:23;;;;;;;;;;;;;;;;;;941008;27;19950;-76
2022/11/10 01:34:56;;;;;;;;;;;;;;;;;;940994;27;19915;-76
2022/11/10 01:35:29;;;;;;;;;;;;;;;;;;941161;27;19911;-75
2022/11/10 01:36:00;;;;;;;;;;;;;;;;;;941013;27;20243;-76
2022/11/10 01:36:33;;;;;;;;;;;;;;;;;;940991;27;19908;-75
2022/11/10 01:37:04;;;;;;;;;;;;;;;;;;941085;27;19911;-76
2022/11/10 01:37:34;;;;;;;;;;;;;;;;;;941043;27;20220;-76
2022/11/10 01:38:08;;;;;;;;;;;;;;;;;;940943;27;20374;-75
2022/11/10 01:38:39;;;;;;;;;;;;;;;;;;940892;27;19907;-75
2022/11/10 01:39:12;;;;;;;;;;;;;;;;;;940972;27;19923;-75
2022/11/10 01:39:43;;;;;;;;;;;;;;;;;;941091;27;19918;-76
2022/11/10 01:40:14;;;;;;;;;;;;;;;;;;940997;27;19915;-76
2022/11/10 01:40:47;;;;;;;;;;;;;;;;;;940998;27;19907;-76
2022/11/10 01:41:18;;;;;;;;;;;;;;;;;;941031;27;19917;-76
2022/11/10 01:41:48;;;;;;;;;;;;;;;;;;941113;27;20159;-76
2022/11/10 01:42:26;;;;;;;;;;;;;;;;;;940935;27;19996;-76
2022/11/10 01:42:57;;;;;;;;;;;;;;;;;;940870;27;19936;-76
2022/11/10 01:43:28;;;;;;;;;;;;;;;;;;941089;27;19971;-76
2022/11/10 01:44:15;;;;;;;;;;;;;;;;;;941065;27;20216;-75
2022/11/10 01:45:11;;;;;;;;;;;;;;;;;;940991;27;20140;-76
2022/11/10 01:45:44;;;;;;;;;;;;;;;;;;940940;27;19926;-76
2022/11/10 01:46:17;;;;;;;;;;;;;;;;;;940930;27;19960;-76
2022/11/10 01:46:48;;;;;;;;;;;;;;;;;;941001;27;19907;-76
2022/11/10 01:47:18;;;;;;;;;;;;;;;;;;940954;27;20121;-75
2022/11/10 01:47:49;;;;;;;;;;;;;;;;;;941060;27;19959;-75
2022/11/10 01:48:28;;;;;;;;;;;;;;;;;;940994;27;19908;-75
2022/11/10 01:49:01;;;;;;;;;;;;;;;;;;940912;27;19908;-76
2022/11/10 01:49:34;;;;;;;;;;;;;;;;;;941122;27;19908;-76
2022/11/10 01:50:06;;;;;;;;;;;;;;;;;;940996;27;19907;-75
2022/11/10 01:50:41;;;;;;;;;;;;;;;;;;940873;27;19908;-77
2022/11/10 01:51:16;;;;;;;;;;;;;;;;;;940969;27;19907;-75
2022/11/10 01:51:49;;;;;;;;;;;;;;;;;;940924;27;19961;-75
2022/11/10 01:52:20;;;;;;;;;;;;;;;;;;941036;27;19971;-76
2022/11/10 01:52:56;;;;;;;;;;;;;;;;;;940915;27;19908;-77
2022/11/10 01:53:28;;;;;;;;;;;;;;;;;;940882;27;19907;-75
2022/11/10 01:54:00;;;;;;;;;;;;;;;;;;940946;27;20225;-76
2022/11/10 01:54:38;;;;;;;;;;;;;;;;;;940977;27;19907;-76
2022/11/10 01:55:09;;;;;;;;;;;;;;;;;;940921;27;19914;-76
2022/11/10 01:55:42;;;;;;;;;;;;;;;;;;941022;27;20204;-76
2022/11/10 01:56:16;;;;;;;;;;;;;;;;;;940980;27;20220;-76
2022/11/10 01:56:49;;;;;;;;;;;;;;;;;;940873;27;19943;-75
2022/11/10 01:57:20;;;;;;;;;;;;;;;;;;940866;27;19907;-76
2022/11/10 01:57:53;;;;;;;;;;;;;;;;;;940946;27;19911;-76
2022/11/10 01:58:25;;;;;;;;;;;;;;;;;;940976;27;19919;-76
2022/11/10 01:59:01;;;;;;;;;;;;;;;;;;940904;27;20112;-76
2022/11/10 01:59:34;;;;;;;;;;;;;;;;;;940997;27;19918;-75
2022/11/10 02:00:06;;;;;;;;;;;;;;;;;;940854;27;20370;-76
2022/11/10 02:00:40;;;;;;;;;;;;;;;;;;940848;27;19916;-76
2022/11/10 02:01:10;;;;;;;;;;;;;;;;;;940919;27;19907;-76
2022/11/10 02:01:41;;;;;;;;;;;;;;;;;;940959;27;19950;-76
2022/11/10 02:02:18;;;;;;;;;;;;;;;;;;940941;27;19908;-76
2022/11/10 02:02:50;;;;;;;;;;;;;;;;;;940881;27;19907;-76
2022/11/10 02:03:25;;;;;;;;;;;;;;;;;;940889;28;19903;-76
2022/11/10 02:03:59;;;;;;;;;;;;;;;;;;940908;27;19907;-76
2022/11/10 02:04:30;;;;;;;;;;;;;;;;;;940962;27;19907;-76
2022/11/10 02:05:02;;;;;;;;;;;;;;;;;;940886;27;19957;-76
2022/11/10 02:05:33;;;;;;;;;;;;;;;;;;940939;27;19919;-76
2022/11/10 02:06:10;;;;;;;;;;;;;;;;;;940992;27;19911;-75
2022/11/10 02:06:42;;;;;;;;;;;;;;;;;;940920;27;19919;-76
2022/11/10 02:07:13;;;;;;;;;;;;;;;;;;940817;27;19907;-76
2022/11/10 02:07:47;;;;;;;;;;;;;;;;;;941061;27;19916;-75
2022/11/10 02:08:18;;;;;;;;;;;;;;;;;;940906;27;19907;-76
2022/11/10 02:08:49;;;;;;;;;;;;;;;;;;941089;27;19911;-76
2022/11/10 02:09:22;;;;;;;;;;;;;;;;;;940874;27;19916;-76
2022/11/10 02:09:53;;;;;;;;;;;;;;;;;;940948;27;19907;-76
2022/11/10 02:10:24;;;;;;;;;;;;;;;;;;940807;27;19907;-76
2022/11/10 02:10:57;;;;;;;;;;;;;;;;;;941016;27;19918;-76
2022/11/10 02:11:28;;;;;;;;;;;;;;;;;;940830;27;19908;-77
2022/11/10 02:11:59;;;;;;;;;;;;;;;;;;940992;27;19903;-77
2022/11/10 02:12:39;;;;;;;;;;;;;;;;;;940908;27;19907;-76
2022/11/10 02:13:10;;;;;;;;;;;;;;;;;;940849;27;19907;-75
2022/11/10 02:13:40;;;;;;;;;;;;;;;;;;941023;27;19907;-76
2022/11/10 02:14:14;;;;;;;;;;;;;;;;;;940983;27;19955;-75
2022/11/10 02:14:45;;;;;;;;;;;;;;;;;;940902;27;19915;-76
2022/11/10 02:15:17;;;;;;;;;;;;;;;;;;940850;27;20208;-76
2022/11/10 02:15:47;;;;;;;;;;;;;;;;;;941212;27;19911;-76
2022/11/10 02:16:21;;;;;;;;;;;;;;;;;;940867;27;19907;-76
2022/11/10 02:16:51;;;;;;;;;;;;;;;;;;940974;27;19907;-76
2022/11/10 02:17:22;;;;;;;;;;;;;;;;;;940891;27;19923;-76
2022/11/10 02:17:56;;;;;;;;;;;;;;;;;;940681;27;19964;-76
2022/11/10 02:18:26;;;;;;;;;;;;;;;;;;940907;27;20250;-77
2022/11/10 02:18:57;;;;;;;;;;;;;;;;;;941065;27;19918;-75
2022/11/10 02:19:30;;;;;;;;;;;;;;;;;;940878;27;19922;-75
2022/11/10 02:20:03;;;;;;;;;;;;;;;;;;940858;27;19922;-76
2022/11/10 02:20:34;;;;;;;;;;;;;;;;;;940914;27;19918;-76
2022/11/10 02:21:11;;;;;;;;;;;;;;;;;;940835;27;19912;-76
2022/11/10 02:21:41;;;;;;;;;;;;;;;;;;940940;27;20588;-76
2022/11/10 02:22:12;;;;;;;;;;;;;;;;;;940877;27;19907;-75
2022/11/10 02:22:45;;;;;;;;;;;;;;;;;;940998;27;19911;-76
2022/11/10 02:23:30;;;;;;;;;;;;;;;;;;940919;27;20117;-75
2022/11/10 02:24:04;;;;;;;;;;;;;;;;;;940666;27;19907;-76
2022/11/10 02:24:34;;;;;;;;;;;;;;;;;;941093;27;19908;-75
2022/11/10 02:25:05;;;;;;;;;;;;;;;;;;941090;27;19912;-76
2022/11/10 02:25:39;;;;;;;;;;;;;;;;;;941007;27;19912;-76
2022/11/10 02:26:10;;;;;;;;;;;;;;;;;;940883;27;19903;-76
2022/11/10 02:26:43;;;;;;;;;;;;;;;;;;940815;27;19907;-77
2022/11/10 02:27:17;;;;;;;;;;;;;;;;;;940897;27;19907;-76
2022/11/10 02:27:47;;;;;;;;;;;;;;;;;;940837;27;19933;-76
2022/11/10 02:28:18;;;;;;;;;;;;;;;;;;940863;27;20483;-76
2022/11/10 02:28:51;;;;;;;;;;;;;;;;;;940976;27;19911;-76
2022/11/10 02:29:22;;;;;;;;;;;;;;;;;;940961;27;20250;-77
2022/11/10 02:29:53;;;;;;;;;;;;;;;;;;940845;27;19908;-76
2022/11/10 02:30:27;;;;;;;;;;;;;;;;;;940832;27;19908;-76
2022/11/10 02:30:57;;;;;;;;;;;;;;;;;;940752;27;19918;-77
2022/11/10 02:31:28;;;;;;;;;;;;;;;;;;941017;27;19907;-76
2022/11/10 02:32:01;;;;;;;;;;;;;;;;;;940990;27;19911;-77
2022/11/10 02:32:32;;;;;;;;;;;;;;;;;;940820;27;19913;-75
2022/11/10 02:33:02;;;;;;;;;;;;;;;;;;940694;27;20212;-76
2022/11/10 02:33:36;;;;;;;;;;;;;;;;;;940934;27;20335;-76
2022/11/10 02:34:07;;;;;;;;;;;;;;;;;;940897;27;19907;-76
2022/11/10 02:34:37;;;;;;;;;;;;;;;;;;940971;27;20250;-76
2022/11/10 02:35:11;;;;;;;;;;;;;;;;;;940861;27;19922;-76
2022/11/10 02:35:41;;;;;;;;;;;;;;;;;;940969;27;19907;-77
2022/11/10 02:36:15;;;;;;;;;;;;;;;;;;940847;27;19926;-76
2022/11/10 02:36:48;;;;;;;;;;;;;;;;;;940874;27;19907;-76
2022/11/10 02:37:19;;;;;;;;;;;;;;;;;;940893;27;19919;-75
2022/11/10 02:37:49;;;;;;;;;;;;;;;;;;940696;27;19915;-75
2022/11/10 02:38:23;;;;;;;;;;;;;;;;;;940865;27;19964;-75
2022/11/10 02:38:53;;;;;;;;;;;;;;;;;;940878;27;19914;-76
2022/11/10 02:39:27;;;;;;;;;;;;;;;;;;940833;27;19919;-76
2022/11/10 02:39:57;;;;;;;;;;;;;;;;;;940971;27;20144;-76
2022/11/10 02:40:28;;;;;;;;;;;;;;;;;;941015;27;19908;-76
2022/11/10 02:41:01;;;;;;;;;;;;;;;;;;940876;27;19904;-77
2022/11/10 02:41:32;;;;;;;;;;;;;;;;;;940879;27;19914;-75
2022/11/10 02:42:09;;;;;;;;;;;;;;;;;;941058;27;19919;-76
2022/11/10 02:42:39;;;;;;;;;;;;;;;;;;940837;27;19922;-76
2022/11/10 02:43:11;;;;;;;;;;;;;;;;;;940922;27;19930;-76
2022/11/10 02:43:45;;;;;;;;;;;;;;;;;;940849;27;19907;-76
2022/11/10 02:44:15;;;;;;;;;;;;;;;;;;940848;27;19954;-76
2022/11/10 02:44:46;;;;;;;;;;;;;;;;;;940832;27;19907;-75
2022/11/10 02:45:17;;;;;;;;;;;;;;;;;;940832;27;20039;-75
2022/11/10 02:45:50;;;;;;;;;;;;;;;;;;940832;27;19952;-75
2022/11/10 02:46:21;;;;;;;;;;;;;;;;;;940974;27;19923;-75
2022/11/10 02:46:51;;;;;;;;;;;;;;;;;;941092;27;20248;-76
2022/11/10 02:47:25;;;;;;;;;;;;;;;;;;941377;27;20219;-76
2022/11/10 02:47:55;;;;;;;;;;;;;;;;;;941002;27;19907;-75
2022/11/10 02:48:27;;;;;;;;;;;;;;;;;;941079;27;19948;-77
2022/11/10 02:49:01;;;;;;;;;;;;;;;;;;940870;27;19920;-76
2022/11/10 02:49:31;;;;;;;;;;;;;;;;;;941204;27;19908;-77
2022/11/10 02:50:02;;;;;;;;;;;;;;;;;;941013;27;19907;-76
2022/11/10 02:50:33;;;;;;;;;;;;;;;;;;941250;27;19922;-76
2022/11/10 02:51:06;;;;;;;;;;;;;;;;;;940948;27;20246;-78
2022/11/10 02:51:39;;;;;;;;;;;;;;;;;;941052;27;19907;-76
2022/11/10 02:52:10;;;;;;;;;;;;;;;;;;941169;27;19950;-76
2022/11/10 02:52:43;;;;;;;;;;;;;;;;;;941079;27;19919;-77
2022/11/10 02:53:14;;;;;;;;;;;;;;;;;;941103;27;20220;-77
2022/11/10 02:53:45;;;;;;;;;;;;;;;;;;941111;27;19907;-77
2022/11/10 02:54:18;;;;;;;;;;;;;;;;;;941024;27;19968;-76
2022/11/10 02:54:49;;;;;;;;;;;;;;;;;;940872;27;19922;-76
2022/11/10 02:55:19;;;;;;;;;;;;;;;;;;940923;27;19911;-75
2022/11/10 02:55:52;;;;;;;;;;;;;;;;;;940861;27;19919;-75
2022/11/10 02:56:23;;;;;;;;;;;;;;;;;;940808;27;19907;-75
2022/11/10 02:56:54;;;;;;;;;;;;;;;;;;940838;27;19915;-75
2022/11/10 02:57:27;;;;;;;;;;;;;;;;;;940830;27;20050;-76
2022/11/10 02:57:58;;;;;;;;;;;;;;;;;;940757;27;19908;-76
2022/11/10 02:58:28;;;;;;;;;;;;;;;;;;940936;27;19908;-75
2022/11/10 02:59:02;;;;;;;;;;;;;;;;;;940726;27;19922;-76
2022/11/10 02:59:32;;;;;;;;;;;;;;;;;;940928;27;20212;-76
2022/11/10 03:00:04;;;;;;;;;;;;;;;;;;940775;27;19959;-76
2022/11/10 03:00:34;;;;;;;;;;;;;;;;;;940844;27;19953;-75
2022/11/10 03:01:08;;;;;;;;;;;;;;;;;;940772;27;20200;-76
2022/11/10 03:01:39;;;;;;;;;;;;;;;;;;940775;27;20155;-76
2022/11/10 03:02:09;;;;;;;;;;;;;;;;;;940773;27;19908;-76
2022/11/10 03:02:40;;;;;;;;;;;;;;;;;;940800;27;19949;-75
2022/11/10 03:03:13;;;;;;;;;;;;;;;;;;940820;27;19963;-76
2022/11/10 03:03:44;;;;;;;;;;;;;;;;;;940902;27;19918;-75
2022/11/10 03:04:14;;;;;;;;;;;;;;;;;;940748;27;20329;-75
2022/11/10 03:04:48;;;;;;;;;;;;;;;;;;940939;27;19927;-76
2022/11/10 03:05:18;;;;;;;;;;;;;;;;;;940812;27;20492;-76
2022/11/10 03:05:49;;;;;;;;;;;;;;;;;;940901;27;19907;-76
2022/11/10 03:06:22;;;;;;;;;;;;;;;;;;940873;27;19918;-76
2022/11/10 03:06:55;;;;;;;;;;;;;;;;;;940928;27;19907;-77
2022/11/10 03:07:26;;;;;;;;;;;;;;;;;;941018;27;19908;-77
2022/11/10 03:08:00;;;;;;;;;;;;;;;;;;940791;27;19907;-77
2022/11/10 03:08:31;;;;;;;;;;;;;;;;;;941055;27;19918;-77
2022/11/10 03:09:01;;;;;;;;;;;;;;;;;;940835;27;20195;-77
2022/11/10 03:09:35;;;;;;;;;;;;;;;;;;940861;27;20177;-76
2022/11/10 03:10:06;;;;;;;;;;;;;;;;;;940859;27;19918;-75
2022/11/10 03:10:37;;;;;;;;;;;;;;;;;;940789;27;19918;-76
2022/11/10 03:11:10;;;;;;;;;;;;;;;;;;940844;27;19919;-77
2022/11/10 03:11:41;;;;;;;;;;;;;;;;;;940945;27;19907;-76
2022/11/10 03:12:11;;;;;;;;;;;;;;;;;;940863;27;19907;-76
2022/11/10 03:12:44;;;;;;;;;;;;;;;;;;940959;27;19960;-76
2022/11/10 03:13:15;;;;;;;;;;;;;;;;;;940939;27;19917;-76
2022/11/10 03:13:46;;;;;;;;;;;;;;;;;;941148;27;19911;-76
2022/11/10 03:14:19;;;;;;;;;;;;;;;;;;940872;27;19984;-76
2022/11/10 03:14:50;;;;;;;;;;;;;;;;;;940764;27;19918;-76
2022/11/10 03:15:20;;;;;;;;;;;;;;;;;;940678;27;19912;-76
2022/11/10 03:15:54;;;;;;;;;;;;;;;;;;940887;27;19907;-75
2022/11/10 03:16:24;;;;;;;;;;;;;;;;;;940851;27;19908;-80
2022/11/10 03:16:55;;;;;;;;;;;;;;;;;;941077;27;19907;-76
2022/11/10 03:17:29;;;;;;;;;;;;;;;;;;940936;27;19908;-76
2022/11/10 03:18:02;;;;;;;;;;;;;;;;;;940786;27;20317;-76
2022/11/10 03:18:32;;;;;;;;;;;;;;;;;;940733;27;19919;-75
2022/11/10 03:19:06;;;;;;;;;;;;;;;;;;940876;27;19916;-74
2022/11/10 03:19:36;;;;;;;;;;;;;;;;;;940841;27;19918;-75
2022/11/10 03:20:08;;;;;;;;;;;;;;;;;;940822;27;19957;-75
2022/11/10 03:20:42;;;;;;;;;;;;;;;;;;940624;27;20274;-75
2022/11/10 03:21:12;;;;;;;;;;;;;;;;;;940862;27;20216;-76
2022/11/10 03:21:43;;;;;;;;;;;;;;;;;;940776;27;19907;-75
2022/11/10 03:22:16;;;;;;;;;;;;;;;;;;940878;27;19960;-75
2022/11/10 03:22:50;;;;;;;;;;;;;;;;;;940779;27;19907;-76
2022/11/10 03:23:20;;;;;;;;;;;;;;;;;;940793;27;19907;-76
2022/11/10 03:23:51;;;;;;;;;;;;;;;;;;940805;27;19907;-75
2022/11/10 03:24:24;;;;;;;;;;;;;;;;;;940715;27;19960;-75
2022/11/10 03:24:55;;;;;;;;;;;;;;;;;;940836;27;19909;-76
2022/11/10 03:25:25;;;;;;;;;;;;;;;;;;940683;27;19907;-76
2022/11/10 03:25:59;;;;;;;;;;;;;;;;;;940766;27;20455;-76
2022/11/10 03:26:29;;;;;;;;;;;;;;;;;;940784;27;19907;-76
2022/11/10 03:27:00;;;;;;;;;;;;;;;;;;940774;27;20144;-76
2022/11/10 03:27:33;;;;;;;;;;;;;;;;;;940761;27;20401;-76
2022/11/10 03:28:04;;;;;;;;;;;;;;;;;;940664;27;19907;-76
2022/11/10 03:28:34;;;;;;;;;;;;;;;;;;940677;27;19907;-76
2022/11/10 03:29:08;;;;;;;;;;;;;;;;;;940858;27;20190;-76
2022/11/10 03:29:38;;;;;;;;;;;;;;;;;;940383;27;19915;-75
2022/11/10 03:30:10;;;;;;;;;;;;;;;;;;940410;27;19908;-76
2022/11/10 03:30:43;;;;;;;;;;;;;;;;;;940630;27;19907;-76
2022/11/10 03:31:13;;;;;;;;;;;;;;;;;;940699;27;19915;-76
2022/11/10 03:31:44;;;;;;;;;;;;;;;;;;940745;27;19912;-75
2022/11/10 03:32:18;;;;;;;;;;;;;;;;;;940754;27;20158;-76
2022/11/10 03:32:48;;;;;;;;;;;;;;;;;;940626;27;19918;-75
2022/11/10 03:33:19;;;;;;;;;;;;;;;;;;940722;27;19911;-75
2022/11/10 03:33:52;;;;;;;;;;;;;;;;;;940784;27;19918;-75
2022/11/10 03:34:23;;;;;;;;;;;;;;;;;;940679;27;19907;-76
2022/11/10 03:34:53;;;;;;;;;;;;;;;;;;940886;27;19911;-76
2022/11/10 03:35:27;;;;;;;;;;;;;;;;;;940775;27;19926;-75
2022/11/10 03:35:57;;;;;;;;;;;;;;;;;;940888;27;19907;-76
2022/11/10 03:36:28;;;;;;;;;;;;;;;;;;940744;27;19907;-75
2022/11/10 03:37:01;;;;;;;;;;;;;;;;;;940775;27;19911;-76
2022/11/10 03:37:34;;;;;;;;;;;;;;;;;;940724;27;19954;-76
2022/11/10 03:38:08;;;;;;;;;;;;;;;;;;940768;27;20212;-76
2022/11/10 03:38:38;;;;;;;;;;;;;;;;;;940653;27;19907;-76
2022/11/10 03:39:09;;;;;;;;;;;;;;;;;;941051;27;19907;-75
2022/11/10 03:39:43;;;;;;;;;;;;;;;;;;940727;27;19907;-76
2022/11/10 03:40:13;;;;;;;;;;;;;;;;;;940888;27;20212;-76
2022/11/10 03:40:47;;;;;;;;;;;;;;;;;;940509;27;19911;-75
2022/11/10 03:41:18;;;;;;;;;;;;;;;;;;940848;27;19918;-77
2022/11/10 03:41:48;;;;;;;;;;;;;;;;;;940778;27;19918;-75
2022/11/10 03:42:21;;;;;;;;;;;;;;;;;;940683;27;19907;-74
2022/11/10 03:42:52;;;;;;;;;;;;;;;;;;940672;27;19918;-76
2022/11/10 03:43:23;;;;;;;;;;;;;;;;;;940763;27;19914;-76
2022/11/10 03:43:56;;;;;;;;;;;;;;;;;;940660;27;19961;-75
2022/11/10 03:44:27;;;;;;;;;;;;;;;;;;940828;27;19911;-75
2022/11/10 03:44:57;;;;;;;;;;;;;;;;;;940640;27;19907;-76
2022/11/10 03:45:30;;;;;;;;;;;;;;;;;;940817;27;20174;-75
2022/11/10 03:46:01;;;;;;;;;;;;;;;;;;940795;27;19911;-76
2022/11/10 03:46:32;;;;;;;;;;;;;;;;;;940708;27;19907;-75
2022/11/10 03:47:05;;;;;;;;;;;;;;;;;;940778;27;20113;-75